Time;durP1;ratioP1;P1;durP2;ratioP2;P2;SDS_P1;SDS_P2;PMS_P1;PMS_P2;Temp;Humidity;BMP_temperature;BMP_pressure;BME280_temperature;BME280_humidity;BME280_pressure;Samples;Min_cycle;Max_cycle;Signal;HPM_P1;HPM_P2
2021/06/02 00:00:10;;;;;;;1.90;1.80;;;;;;;12.83;76.92;96961.19;4965654;28;20049;-67
2021/06/02 00:02:44;;;;;;;2.72;1.90;;;;;;;12.79;78.03;96965.91;4965569;28;20415;-67
2021/06/02 00:05:12;;;;;;;2.30;2.10;;;;;;;12.24;78.29;96889.28;4965573;28;20045;-66
2021/06/02 00:07:40;;;;;;;3.05;1.92;;;;;;;12.74;78.11;96974.59;4965662;28;20042;-66
2021/06/02 00:10:05;;;;;;;2.35;1.73;;;;;;;12.78;77.66;96969.06;4980078;28;20075;-65
2021/06/02 00:12:31;;;;;;;3.10;1.80;;;;;;;12.71;77.85;96964.25;4964208;28;20038;-66
2021/06/02 00:14:57;;;;;;;1.90;1.73;;;;;;;12.67;78.43;96960.66;4980315;28;20126;-66
2021/06/02 00:17:23;;;;;;;3.13;1.50;;;;;;;12.29;78.29;96891.72;4964514;28;20121;-65
2021/06/02 00:19:49;;;;;;;6.53;1.88;;;;;;;12.40;77.72;96930.66;4964041;28;20035;-66
2021/06/02 00:22:16;;;;;;;1.52;1.42;;;;;;;12.53;79.23;96945.88;4964930;28;20042;-66
2021/06/02 00:24:41;;;;;;;3.72;1.70;;;;;;;12.77;78.82;96957.16;4964887;28;20038;-66
2021/06/02 00:27:11;;;;;;;1.75;1.65;;;;;;;12.26;77.41;96892.47;4963125;28;20489;-66
2021/06/02 00:29:39;;;;;;;2.22;2.00;;;;;;;12.53;78.07;96940.31;4963721;28;20042;-66
2021/06/02 00:32:07;;;;;;;1.98;1.88;;;;;;;12.54;78.85;96964.94;4965272;28;20043;-66
2021/06/02 00:34:33;;;;;;;2.33;1.65;;;;;;;12.58;78.63;96965.75;4966039;28;20027;-65
2021/06/02 00:37:00;;;;;;;1.95;1.42;;;;;;;12.64;78.13;96964.22;4965097;28;20066;-66
2021/06/02 00:39:26;;;;;;;1.63;1.50;;;;;;;12.26;78.86;96931.38;4965394;28;20046;-66
2021/06/02 00:41:54;;;;;;;1.70;1.60;;;;;;;12.64;78.27;96961.44;4964521;28;20508;-66
2021/06/02 00:44:20;;;;;;;1.98;1.30;;;;;;;12.48;79.73;96960.91;4963360;28;20038;-65
2021/06/02 00:46:47;;;;;;;2.03;1.50;;;;;;;12.57;79.13;96964.16;4979027;28;20062;-65
2021/06/02 00:49:16;;;;;;;2.53;1.70;;;;;;;12.52;79.21;96988.72;4964229;28;20065;-65
2021/06/02 00:51:41;;;;;;;1.50;1.40;;;;;;;12.52;79.09;96963.72;4979162;28;20145;-66
2021/06/02 00:54:08;;;;;;;2.28;1.50;;;;;;;12.44;80.13;96970.41;4965414;28;20170;-65
2021/06/02 00:56:51;;;;;;;3.33;1.50;;;;;;;11.89;80.80;96914.75;4962945;28;20109;-65
2021/06/02 00:59:19;;;;;;;1.80;1.58;;;;;;;12.25;80.99;96970.63;4963524;28;20039;-66
2021/06/02 01:01:46;;;;;;;1.85;1.63;;;;;;;12.20;81.08;96969.00;4963284;28;20506;-66
2021/06/02 01:04:12;;;;;;;1.95;1.70;;;;;;;12.23;80.59;96976.56;4965231;28;20416;-59
2021/06/02 01:06:40;;;;;;;10.40;5.80;;;;;;;11.84;81.13;96919.84;4964210;28;20201;-59
2021/06/02 01:09:06;;;;;;;10.93;5.40;;;;;;;11.17;83.41;96835.09;4964661;28;20239;-59
2021/06/02 01:11:33;;;;;;;3.97;3.08;;;;;;;11.50;84.10;96894.13;4964467;28;20043;-62
2021/06/02 01:14:01;;;;;;;2.45;2.22;;;;;;;12.17;83.55;96972.53;4965075;28;20112;-58
2021/06/02 01:16:32;;;;;;;3.15;2.72;;;;;;;12.05;83.98;96970.03;4978670;28;20419;-59
2021/06/02 01:18:58;;;;;;;2.42;2.22;;;;;;;12.07;84.19;96978.78;4963229;28;20030;-58
2021/06/02 01:21:28;;;;;;;14.07;5.72;;;;;;;12.09;83.93;96987.53;4964073;28;20506;-59
2021/06/02 01:23:58;;;;;;;16.52;5.35;;;;;;;12.07;84.27;96982.38;4964738;28;20038;-62
2021/06/02 01:26:25;;;;;;;6.78;2.95;;;;;;;12.00;80.50;96987.03;4964268;28;20034;-58
2021/06/02 01:28:52;;;;;;;5.63;2.38;;;;;;;11.99;79.90;96989.03;4964536;28;20548;-59
2021/06/02 01:31:41;;;;;;;12.48;5.03;;;;;;;11.75;81.10;96994.28;4964486;28;20577;-59
2021/06/02 01:34:23;;;;;;;5.25;3.10;;;;;;;11.62;81.15;96942.97;4967350;28;20545;-61
2021/06/02 01:37:18;;;;;;;9.63;4.20;;;;;;;11.96;80.19;96988.97;4964275;28;20047;-59
2021/06/02 01:40:02;;;;;;;7.20;4.25;;;;;;;12.00;81.25;96984.25;4964987;28;20062;-59
2021/06/02 01:42:43;;;;;;;10.40;3.65;;;;;;;12.03;82.12;96994.59;4964665;28;20508;-59
2021/06/02 01:45:35;;;;;;;7.15;2.83;;;;;;;11.62;83.67;96990.13;4962878;28;20074;-58
2021/06/02 01:48:19;;;;;;;2.92;1.98;;;;;;;11.73;82.95;96979.97;4964712;28;20206;-59
2021/06/02 01:51:26;;;;;;;7.03;2.58;;;;;;;11.69;83.51;96995.81;4964596;28;20043;-59
2021/06/02 01:54:18;;;;;;;2.08;1.88;;;;;;;11.78;84.98;96993.53;4980721;28;20050;-61
2021/06/02 01:57:24;;;;;;;12.18;3.47;;;;;;;11.79;81.36;96989.59;4980502;28;20534;-61
2021/06/02 01:59:49;;;;;;;14.63;4.07;;;;;;;11.67;81.10;96992.59;4980287;28;20050;-58
2021/06/02 02:02:29;;;;;;;3.47;1.60;;;;;;;11.73;78.28;96999.41;4965839;28;20049;-59
2021/06/02 02:05:14;;;;;;;5.40;2.13;;;;;;;11.76;77.83;96995.91;4966491;28;20045;-59
2021/06/02 02:07:56;;;;;;;5.03;2.58;;;;;;;11.87;79.11;96996.81;4968322;28;20047;-59
2021/06/02 02:10:34;;;;;;;3.58;1.50;;;;;;;11.82;81.32;97005.47;4965853;28;20585;-59
2021/06/02 02:13:08;;;;;;;3.10;1.73;;;;;;;11.81;81.82;97003.88;4967511;28;20110;-59
2021/06/02 02:15:55;;;;;;;1.65;1.40;;;;;;;11.68;82.99;97000.53;4966490;28;20047;-62
2021/06/02 02:18:39;;;;;;;2.40;1.58;;;;;;;11.60;83.46;97003.59;4967511;28;20089;-59
2021/06/02 02:21:17;;;;;;;3.70;1.70;;;;;;;11.51;84.16;97000.28;4965735;28;20054;-59
2021/06/02 02:24:06;;;;;;;5.05;1.50;;;;;;;11.56;84.00;97002.75;4982157;28;20227;-60
2021/06/02 02:26:56;;;;;;;6.63;1.80;;;;;;;11.47;84.68;97011.38;4967675;28;20031;-59
2021/06/02 02:29:44;;;;;;;1.85;1.65;;;;;;;11.27;85.96;97003.56;4967535;28;20470;-60
2021/06/02 02:32:32;;;;;;;2.60;1.60;;;;;;;10.58;87.35;96924.56;4967068;28;20043;-59
2021/06/02 02:35:24;;;;;;;3.88;1.60;;;;;;;10.85;87.74;96995.44;4967133;28;20042;-66
2021/06/02 02:38:06;;;;;;;3.15;1.88;;;;;;;10.77;87.80;96976.28;4966003;28;20534;-66
2021/06/02 02:40:40;;;;;;;1.75;1.58;;;;;;;11.05;87.51;97021.09;4965532;28;20039;-66
2021/06/02 02:43:12;;;;;;;2.35;1.65;;;;;;;10.92;88.21;97022.47;4967459;28;20034;-66
2021/06/02 02:45:56;;;;;;;3.40;1.67;;;;;;;10.86;89.00;97023.94;4965600;28;20399;-66
2021/06/02 02:48:37;;;;;;;3.55;1.67;;;;;;;10.44;89.35;96980.56;4966848;28;20454;-66
2021/06/02 02:51:24;;;;;;;2.17;1.67;;;;;;;10.25;90.18;96977.88;4965060;28;20039;-66
2021/06/02 02:54:08;;;;;;;4.32;1.67;;;;;;;10.64;89.47;97031.91;4966857;28;20038;-66
2021/06/02 02:56:45;;;;;;;1.98;1.73;;;;;;;10.63;89.18;97049.72;4966678;28;20417;-66
2021/06/02 02:59:23;;;;;;;3.13;1.58;;;;;;;10.52;90.50;97043.19;4967125;28;20496;-66
2021/06/02 03:02:05;;;;;;;9.75;2.67;;;;;;;9.25;90.55;96851.13;4967277;28;20027;-66
2021/06/02 03:04:39;;;;;;;2.22;1.90;;;;;;;10.43;90.30;97047.38;4965266;28;20166;-66
2021/06/02 03:07:07;;;;;;;2.47;1.70;;;;;;;10.31;89.84;97047.53;4966275;28;20441;-66
2021/06/02 03:09:56;;;;;;;1.98;1.60;;;;;;;9.58;90.67;96948.13;4966802;28;20564;-65
2021/06/02 03:12:37;;;;;;;3.33;1.83;;;;;;;10.30;91.64;97051.50;4963677;28;20216;-65
2021/06/02 03:15:21;;;;;;;2.25;1.83;;;;;;;10.36;91.49;97050.81;4965265;28;20105;-66
2021/06/02 03:18:20;;;;;;;2.38;1.80;;;;;;;10.34;90.21;97038.50;4967003;28;20138;-66
2021/06/02 03:20:57;;;;;;;3.30;2.25;;;;;;;10.40;90.50;97054.44;4968487;28;20063;-65
2021/06/02 03:24:05;;;;;;;4.50;2.70;;;;;;;10.45;91.49;97058.88;4966281;28;20101;-66
2021/06/02 03:26:43;;;;;;;4.18;1.90;;;;;;;10.47;89.03;97056.53;4965749;28;20105;-66
2021/06/02 03:29:14;;;;;;;2.80;1.90;;;;;;;10.48;89.36;97058.94;4966075;28;20117;-65
2021/06/02 03:31:58;;;;;;;2.00;1.80;;;;;;;10.47;89.39;97062.88;4964155;28;20577;-66
2021/06/02 03:34:27;;;;;;;2.20;1.50;;;;;;;10.00;90.36;97003.47;4966028;28;20042;-65
2021/06/02 03:37:04;;;;;;;2.13;1.75;;;;;;;10.52;89.07;97057.06;4964300;28;20047;-65
2021/06/02 03:39:38;;;;;;;3.10;1.67;;;;;;;10.62;87.20;97058.41;4980582;28;20046;-65
2021/06/02 03:42:20;;;;;;;1.60;1.50;;;;;;;10.37;87.24;96980.44;4964317;28;20070;-65
2021/06/02 03:45:04;;;;;;;2.72;1.45;;;;;;;10.75;86.72;97056.22;4964499;28;20046;-65
2021/06/02 03:47:45;;;;;;;3.58;2.30;;;;;;;10.70;86.41;97060.91;4965646;28;20039;-65
2021/06/02 03:50:18;;;;;;;2.88;2.53;;;;;;;10.75;87.95;97056.22;4963892;28;20157;-67
2021/06/02 03:52:44;;;;;;;3.38;2.58;;;;;;;10.82;87.47;97056.34;4965393;28;20086;-65
2021/06/02 03:55:19;;;;;;;4.43;1.77;;;;;;;10.87;87.10;97059.59;4964148;28;20414;-65
2021/06/02 03:57:46;;;;;;;3.42;1.80;;;;;;;10.96;86.45;97062.09;4980531;28;20069;-65
2021/06/02 04:00:17;;;;;;;1.70;1.60;;;;;;;11.13;85.40;97073.47;4964229;28;20049;-65
2021/06/02 04:03:01;;;;;;;1.50;1.40;;;;;;;11.39;84.15;97075.44;4965751;28;20035;-66
2021/06/02 04:06:02;;;;;;;3.92;1.55;;;;;;;11.53;83.64;97083.94;4963859;28;20118;-65
2021/06/02 04:08:45;;;;;;;5.03;1.55;;;;;;;11.75;82.13;97074.75;4965500;28;20070;-66
2021/06/02 04:11:36;;;;;;;4.60;1.98;;;;;;;11.72;81.08;97061.63;4965186;28;20540;-66
2021/06/02 04:14:07;;;;;;;6.85;1.67;;;;;;;11.86;82.11;97075.69;4965625;28;20446;-66
2021/06/02 04:16:35;;;;;;;4.22;2.20;;;;;;;11.41;81.73;97012.06;4963518;28;20388;-66
2021/06/02 04:19:29;;;;;;;1.95;1.75;;;;;;;11.98;81.41;97092.13;4964279;28;20047;-65
2021/06/02 04:22:02;;;;;;;3.63;2.30;;;;;;;11.55;80.81;97015.03;4964903;28;20054;-64
2021/06/02 04:24:30;;;;;;;5.15;2.45;;;;;;;12.17;80.19;97089.19;4963685;28;20528;-64
2021/06/02 04:26:56;;;;;;;2.30;1.90;;;;;;;12.17;79.65;97089.97;4965090;28;20083;-66
2021/06/02 04:29:25;;;;;;;5.65;2.13;;;;;;;12.41;78.14;97093.41;4965422;28;20045;-65
2021/06/02 04:31:52;;;;;;;4.82;1.75;;;;;;;9.82;78.49;96675.91;4964707;28;20059;-65
2021/06/02 04:34:19;;;;;;;3.58;2.05;;;;;;;12.41;78.05;97088.63;4963765;28;20128;-65
2021/06/02 04:36:47;;;;;;;2.58;1.50;;;;;;;12.62;76.67;97097.19;4965369;28;20528;-65
2021/06/02 04:39:13;;;;;;;6.30;2.22;;;;;;;12.55;75.06;97052.66;4965477;28;20110;-65
2021/06/02 04:41:40;;;;;;;7.65;2.33;;;;;;;13.03;75.63;97104.34;4964807;28;20125;-65
2021/06/02 04:44:11;;;;;;;1.70;1.60;;;;;;;13.10;74.82;97093.25;4979431;28;20042;-63
2021/06/02 04:46:37;;;;;;;3.33;1.83;;;;;;;12.76;72.68;97010.34;4964704;28;20038;-64
2021/06/02 04:49:03;;;;;;;2.83;1.75;;;;;;;13.41;72.26;97087.16;4963365;28;20037;-65
2021/06/02 04:52:02;;;;;;;5.80;2.10;;;;;;;13.53;71.94;97122.22;4964269;28;20023;-64
2021/06/02 04:55:05;;;;;;;2.40;2.22;;;;;;;13.96;69.55;97117.69;4964628;28;20050;-64
2021/06/02 04:57:36;;;;;;;2.63;2.28;;;;;;;14.19;66.30;97123.75;4964852;28;20122;-65
2021/06/02 05:00:04;;;;;;;2.47;2.28;;;;;;;14.49;64.67;97191.19;4965141;28;20577;-65
2021/06/02 05:03:16;;;;;;;3.58;2.83;;;;;;;14.92;63.76;97114.84;4964642;28;20293;-65
2021/06/02 05:05:48;;;;;;;3.25;2.88;;;;;;;15.28;63.85;97115.66;4962840;28;20066;-65
2021/06/02 05:08:16;;;;;;;2.72;2.47;;;;;;;15.40;61.21;97112.47;4964811;28;20039;-65
2021/06/02 05:10:47;;;;;;;5.15;3.30;;;;;;;15.63;60.49;97116.47;4964267;28;20046;-65
2021/06/02 05:13:50;;;;;;;6.03;3.97;;;;;;;16.02;60.02;97122.75;4964686;28;20034;-65
2021/06/02 05:16:42;;;;;;;4.57;4.00;;;;;;;16.30;58.34;97130.22;4963214;28;20145;-65
2021/06/02 05:19:49;;;;;;;2.40;2.10;;;;;;;13.67;59.98;96772.34;4963273;28;20034;-65
2021/06/02 05:22:54;;;;;;;4.18;2.80;;;;;;;16.38;58.24;97138.19;4964139;28;20045;-65
2021/06/02 05:25:41;;;;;;;3.38;2.50;;;;;;;16.48;55.34;97137.38;4964408;28;20050;-66
2021/06/02 05:28:44;;;;;;;3.20;2.90;;;;;;;16.61;55.16;97143.31;4962928;28;20442;-65
2021/06/02 05:31:44;;;;;;;2.38;2.22;;;;;;;16.94;52.25;97144.72;4964171;28;20098;-65
2021/06/02 05:34:37;;;;;;;2.47;2.28;;;;;;;17.14;51.62;97146.56;4965419;28;20045;-65
2021/06/02 05:37:40;;;;;;;2.05;1.95;;;;;;;17.32;49.70;97149.25;4968402;28;20042;-65
2021/06/02 05:40:39;;;;;;;2.53;2.33;;;;;;;17.14;51.09;97154.16;4968002;28;20039;-65
2021/06/02 05:43:23;;;;;;;2.40;2.30;;;;;;;17.28;50.96;97154.06;4966698;28;20050;-66
2021/06/02 05:46:26;;;;;;;2.33;2.22;;;;;;;17.60;50.36;97146.25;4965664;28;20165;-65
2021/06/02 05:49:16;;;;;;;2.72;2.53;;;;;;;17.68;50.32;97150.56;4966074;28;20046;-59
2021/06/02 05:52:02;;;;;;;3.35;2.40;;;;;;;17.81;49.34;97155.22;4966345;28;20100;-61
2021/06/02 05:54:46;;;;;;;2.75;2.55;;;;;;;17.46;49.86;97165.97;4965882;28;20042;-70
2021/06/02 05:57:21;;;;;;;2.70;2.50;;;;;;;17.13;49.16;97155.38;4965427;28;20049;-64
2021/06/02 06:00:10;;;;;;;3.13;2.50;;;;;;;16.86;47.88;97163.56;4966527;28;20437;-59
2021/06/02 06:03:17;;;;;;;2.83;2.63;;;;;;;16.76;49.07;97155.19;4965240;28;20201;-68
2021/06/02 06:06:09;;;;;;;2.38;2.20;;;;;;;17.24;48.74;97158.91;4967001;28;20059;-61
2021/06/02 06:08:34;;;;;;;2.33;2.22;;;;;;;17.18;47.00;97121.38;4967118;28;20174;-66
2021/06/02 06:11:31;;;;;;;4.30;3.90;;;;;;;18.04;46.84;97169.44;4966689;28;20521;-68
2021/06/02 06:14:18;;;;;;;3.40;3.20;;;;;;;18.52;45.85;97160.91;4966457;28;20031;-58
2021/06/02 06:17:10;;;;;;;6.97;3.17;;;;;;;14.84;48.07;96807.25;4966686;28;20069;-66
2021/06/02 06:19:47;;;;;;;3.38;2.40;;;;;;;16.88;47.13;97175.13;4968093;28;20050;-58
2021/06/02 06:22:37;;;;;;;2.40;2.30;;;;;;;17.14;47.08;97168.16;4966453;28;20042;-61
2021/06/02 06:25:26;;;;;;;2.63;2.53;;;;;;;17.97;45.50;97169.50;4966219;28;20042;-72
2021/06/02 06:27:59;;;;;;;2.38;2.22;;;;;;;18.99;44.12;97159.09;4966488;28;20039;-61
2021/06/02 06:30:31;;;;;;;2.38;2.28;;;;;;;19.34;43.36;97156.59;4965088;28;20109;-59
2021/06/02 06:32:58;;;;;;;6.25;3.60;;;;;;;19.85;43.02;97152.53;4965848;28;20097;-67
2021/06/02 06:35:25;;;;;;;9.02;4.15;;;;;;;19.35;43.24;97158.16;4966588;28;20717;-68
2021/06/02 06:37:53;;;;;;;3.92;3.25;;;;;;;19.42;43.71;97169.31;4965004;28;20413;-67
2021/06/02 06:40:30;;;;;;;3.50;3.20;;;;;;;18.87;43.80;97101.53;4967501;28;20039;-73
2021/06/02 06:42:57;;;;;;;13.38;7.25;;;;;;;19.58;43.50;97165.03;4966789;28;20038;-60
2021/06/02 06:45:29;;;;;;;3.13;2.90;;;;;;;17.86;44.55;97137.19;4979671;28;20058;-59
2021/06/02 06:47:56;;;;;;;3.85;3.30;;;;;;;17.86;43.52;97095.16;4963759;28;20034;-65
2021/06/02 06:50:22;;;;;;;16.90;7.05;;;;;;;17.47;45.28;97179.56;4965584;28;20066;-68
2021/06/02 06:52:51;;;;;;;24.77;10.02;;;;;;;17.32;45.25;97121.25;4966612;28;20122;-67
2021/06/02 06:55:17;;;;;;;9.05;5.93;;;;;;;17.47;46.36;97164.75;4966799;28;20058;-72
2021/06/02 06:57:45;;;;;;;4.25;3.72;;;;;;;17.08;46.06;97189.41;4966339;28;20035;-58
2021/06/02 07:00:12;;;;;;;3.67;3.33;;;;;;;17.09;47.14;97191.78;4965661;28;20532;-69
2021/06/02 07:02:39;;;;;;;6.75;5.13;;;;;;;17.07;47.81;97165.44;4966693;28;20038;-67
2021/06/02 07:05:07;;;;;;;8.38;4.88;;;;;;;16.97;47.25;97189.47;4966093;28;20035;-63
2021/06/02 07:07:37;;;;;;;3.70;3.30;;;;;;;16.98;48.14;97191.06;4960927;28;20094;-64
2021/06/02 07:10:07;;;;;;;5.40;3.80;;;;;;;17.11;48.36;97188.56;4955981;28;20491;-68
2021/06/02 07:12:35;;;;;;;4.65;4.00;;;;;;;17.40;47.88;97176.00;4966192;28;20097;-60
2021/06/02 07:15:03;;;;;;;3.03;2.72;;;;;;;17.51;47.68;97179.53;4965825;28;20157;-55
2021/06/02 07:17:29;;;;;;;8.20;6.10;;;;;;;17.77;47.96;97181.69;4966507;28;20051;-58
2021/06/02 07:19:59;;;;;;;4.03;3.55;;;;;;;17.75;46.62;97164.53;4966882;28;20035;-65
2021/06/02 07:22:27;;;;;;;3.72;3.15;;;;;;;18.02;46.83;97183.06;4964112;28;20253;-58
2021/06/02 07:25:00;;;;;;;4.05;3.13;;;;;;;16.75;45.37;97036.13;4965819;28;20078;-66
2021/06/02 07:27:27;;;;;;;4.83;3.70;;;;;;;17.62;47.76;97180.25;4977763;28;20051;-64
2021/06/02 07:29:52;;;;;;;17.52;10.43;;;;;;;17.53;47.83;97163.13;4979971;28;20121;-59
2021/06/02 07:32:18;;;;;;;9.48;4.53;;;;;;;17.25;47.22;97068.91;4960311;28;20066;-66
2021/06/02 07:34:44;;;;;;;6.32;4.15;;;;;;;18.17;47.09;97189.34;4947559;29;20034;-63
2021/06/02 07:37:10;;;;;;;5.15;3.20;;;;;;;18.30;45.56;97187.59;4962368;28;20038;-62
2021/06/02 07:39:36;;;;;;;3.63;3.22;;;;;;;18.03;44.51;97179.06;4966200;28;20042;-64
2021/06/02 07:42:02;;;;;;;3.50;3.20;;;;;;;18.46;44.05;97185.03;4963796;28;20584;-60
2021/06/02 07:44:27;;;;;;;3.13;2.92;;;;;;;17.56;45.73;97179.09;4963197;28;20120;-69
2021/06/02 07:46:52;;;;;;;3.33;3.03;;;;;;;17.73;45.69;97181.75;4965557;28;20523;-58
2021/06/02 07:49:18;;;;;;;11.45;6.13;;;;;;;17.90;46.39;97180.78;4963929;28;20109;-66
2021/06/02 07:51:43;;;;;;;4.88;4.13;;;;;;;18.56;46.14;97181.31;4968537;28;20034;-67
2021/06/02 07:54:09;;;;;;;3.88;3.20;;;;;;;19.24;43.75;97171.56;4965082;28;20054;-67
2021/06/02 07:56:35;;;;;;;7.93;5.47;;;;;;;19.79;43.21;97175.94;4964445;28;20086;-55
2021/06/02 07:59:00;;;;;;;3.78;3.40;;;;;;;19.01;42.29;97005.84;4966348;28;20039;-54
2021/06/02 08:01:27;;;;;;;3.63;3.38;;;;;;;20.29;41.34;97166.22;4965268;28;20528;-72
2021/06/02 08:03:53;;;;;;;3.97;3.63;;;;;;;20.97;40.79;97166.44;4965251;28;20066;-56
2021/06/02 08:06:18;;;;;;;6.07;5.43;;;;;;;21.09;40.94;97165.78;4964884;28;20490;-55
2021/06/02 08:08:43;;;;;;;3.60;3.40;;;;;;;20.79;40.03;97171.63;4965527;28;20478;-54
2021/06/02 08:11:09;;;;;;;4.20;3.22;;;;;;;20.24;39.14;97123.69;4964492;28;20117;-59
2021/06/02 08:13:34;;;;;;;3.70;3.40;;;;;;;19.93;40.15;97178.50;4964849;28;20070;-69
2021/06/02 08:16:00;;;;;;;3.10;2.85;;;;;;;18.39;42.30;97084.13;4960120;28;20031;-58
2021/06/02 08:18:26;;;;;;;3.72;3.42;;;;;;;19.38;43.10;97184.63;4959873;28;20082;-71
2021/06/02 08:20:52;;;;;;;3.20;3.00;;;;;;;19.52;42.52;97173.94;4965012;28;20482;-64
2021/06/02 08:23:17;;;;;;;4.93;3.13;;;;;;;19.52;42.64;97173.19;4972362;28;20074;-67
2021/06/02 08:25:43;;;;;;;3.60;3.30;;;;;;;19.33;42.27;97114.88;4957703;28;20030;-62
2021/06/02 08:28:08;;;;;;;4.50;3.13;;;;;;;19.49;43.49;97143.09;4964450;28;20066;-63
2021/06/02 08:30:34;;;;;;;4.10;3.72;;;;;;;19.81;42.81;97168.66;4963561;28;20043;-67
2021/06/02 08:32:59;;;;;;;3.95;3.65;;;;;;;19.50;43.02;97120.22;4963980;28;20049;-60
2021/06/02 08:35:25;;;;;;;3.72;3.33;;;;;;;19.82;42.80;97146.97;4963971;28;20045;-63
2021/06/02 08:37:51;;;;;;;4.03;3.72;;;;;;;20.20;41.71;97179.25;4964247;28;20041;-60
2021/06/02 08:40:17;;;;;;;3.25;3.00;;;;;;;19.89;42.42;97149.63;4971296;28;20036;-58
2021/06/02 08:42:44;;;;;;;2.90;2.80;;;;;;;20.08;42.38;97179.84;4972977;28;20074;-63
2021/06/02 08:45:12;;;;;;;3.60;3.30;;;;;;;19.78;43.81;97179.97;4968447;28;20564;-60
2021/06/02 08:47:38;;;;;;;5.28;3.08;;;;;;;19.58;42.85;97135.72;4969710;28;20038;-66
2021/06/02 08:50:08;;;;;;;3.50;3.30;;;;;;;19.60;43.67;97126.06;4981315;28;20053;-61
2021/06/02 08:52:35;;;;;;;3.80;3.50;;;;;;;20.04;43.22;97181.94;4969635;28;20027;-62
2021/06/02 08:55:01;;;;;;;3.20;3.00;;;;;;;20.03;44.05;97175.50;4976112;28;20076;-59
2021/06/02 08:57:28;;;;;;;4.20;3.88;;;;;;;19.46;43.38;97094.19;4976259;28;20047;-65
2021/06/02 08:59:54;;;;;;;5.20;4.60;;;;;;;19.92;44.70;97180.50;4962949;28;20506;-68
2021/06/02 09:02:19;;;;;;;5.10;4.03;;;;;;;19.58;44.26;97166.63;4961928;28;20041;-75
2021/06/02 09:04:44;;;;;;;7.45;4.95;;;;;;;19.42;45.27;97144.03;4963998;28;20498;-71
2021/06/02 09:07:12;;;;;;;4.13;3.83;;;;;;;19.00;44.77;97135.44;4963315;28;20054;-71
2021/06/02 09:09:37;;;;;;;4.47;3.72;;;;;;;18.50;47.44;97185.78;4962403;28;20473;-58
2021/06/02 09:12:06;;;;;;;4.45;3.95;;;;;;;17.99;49.37;97177.50;4966106;28;20045;-60
2021/06/02 09:14:38;;;;;;;3.67;3.17;;;;;;;17.58;49.49;97190.66;4981757;28;20046;-57
2021/06/02 09:17:07;;;;;;;6.47;4.40;;;;;;;17.87;49.15;97147.19;4966264;28;20046;-71
2021/06/02 09:19:36;;;;;;;5.45;3.47;;;;;;;18.26;47.12;97090.69;4965842;28;20033;-57
2021/06/02 09:22:03;;;;;;;4.78;3.90;;;;;;;19.09;47.32;97178.63;4982478;28;20276;-72
2021/06/02 09:24:44;;;;;;;6.82;4.28;;;;;;;20.12;45.69;97160.88;4968215;28;20170;-74
2021/06/02 09:27:09;;;;;;;5.32;3.75;;;;;;;20.36;43.40;97233.59;4968438;28;20045;-71
2021/06/02 09:29:53;;;;;;;5.28;4.28;;;;;;;20.32;43.63;97158.91;4966931;28;20043;-58
2021/06/02 09:32:20;;;;;;;5.10;4.25;;;;;;;20.43;43.42;97159.50;4968382;28;20141;-78
2021/06/02 09:34:46;;;;;;;4.95;4.55;;;;;;;20.12;43.62;97110.25;4965401;28;20537;-68
2021/06/02 09:37:12;;;;;;;4.63;4.32;;;;;;;20.89;43.00;97156.53;4967544;28;20053;-56
2021/06/02 09:39:40;;;;;;;3.38;3.17;;;;;;;21.16;40.83;97139.47;4965049;28;20867;-67
2021/06/02 09:42:23;;;;;;;3.63;3.42;;;;;;;21.28;42.05;97150.84;4956121;28;20033;-58
2021/06/02 09:45:14;;;;;;;3.88;3.33;;;;;;;21.99;40.56;97150.72;4962173;28;20462;-57
2021/06/02 09:47:45;;;;;;;3.92;3.63;;;;;;;22.36;39.21;97150.13;4964737;28;20046;-59
2021/06/02 09:50:11;;;;;;;3.72;3.53;;;;;;;22.15;40.26;97149.88;4965068;28;20066;-59
2021/06/02 09:52:47;;;;;;;4.93;4.40;;;;;;;21.92;41.04;97152.94;4966434;28;20035;-56
2021/06/02 09:55:14;;;;;;;5.07;4.38;;;;;;;21.81;40.85;97156.03;4963924;28;20097;-65
2021/06/02 09:57:39;;;;;;;3.83;3.63;;;;;;;21.85;40.50;97128.50;4961135;28;20032;-68
2021/06/02 10:00:06;;;;;;;4.85;4.47;;;;;;;21.94;40.80;97147.66;4964278;28;20418;-58
2021/06/02 10:02:31;;;;;;;3.60;3.40;;;;;;;20.66;42.14;97151.00;4965419;28;20031;-59
2021/06/02 10:04:58;;;;;;;4.10;3.63;;;;;;;20.19;44.14;97110.94;4966245;28;20037;-67
2021/06/02 10:07:24;;;;;;;3.20;3.00;;;;;;;20.95;42.51;97106.91;4966688;28;20537;-58
2021/06/02 10:09:49;;;;;;;5.18;4.10;;;;;;;21.22;42.66;97166.69;4967150;28;20031;-57
2021/06/02 10:12:15;;;;;;;4.28;3.97;;;;;;;21.59;42.74;97154.91;4971270;28;20027;-59
2021/06/02 10:14:53;;;;;;;4.03;3.70;;;;;;;21.62;41.72;97139.16;4978716;28;20390;-57
2021/06/02 10:17:32;;;;;;;9.50;7.03;;;;;;;21.60;41.10;97158.53;4954917;28;20050;-59
2021/06/02 10:20:06;;;;;;;7.30;5.93;;;;;;;21.80;41.58;97145.16;4964636;28;20474;-68
2021/06/02 10:22:32;;;;;;;9.52;6.20;;;;;;;21.51;42.23;97150.72;4966026;28;20039;-57
2021/06/02 10:25:00;;;;;;;3.83;3.63;;;;;;;21.85;41.11;97142.63;4965371;28;20066;-67
2021/06/02 10:27:26;;;;;;;4.07;3.78;;;;;;;22.30;40.72;97146.22;4966585;28;20664;-57
2021/06/02 10:29:53;;;;;;;4.60;4.20;;;;;;;21.82;41.79;97143.50;4965987;28;20039;-57
2021/06/02 10:32:20;;;;;;;4.60;4.20;;;;;;;21.94;41.43;97139.94;4967036;28;20490;-57
2021/06/02 10:34:47;;;;;;;3.72;3.42;;;;;;;21.04;42.02;97121.22;4967291;28;20109;-58
2021/06/02 10:37:15;;;;;;;3.67;3.28;;;;;;;21.03;43.37;97130.91;4967014;28;20060;-68
2021/06/02 10:39:44;;;;;;;3.40;3.15;;;;;;;19.82;44.43;97110.41;4966812;28;20042;-71
2021/06/02 10:42:26;;;;;;;3.05;2.85;;;;;;;18.75;47.51;97152.59;4966731;28;20046;-69
2021/06/02 10:44:57;;;;;;;3.42;3.13;;;;;;;18.72;49.25;97156.25;4967282;28;20031;-68
2021/06/02 10:47:26;;;;;;;2.90;2.70;;;;;;;17.99;49.97;97171.88;4966900;28;20427;-69
2021/06/02 10:49:53;;;;;;;2.50;2.30;;;;;;;17.72;51.73;97156.97;4967071;28;20113;-68
2021/06/02 10:52:39;;;;;;;2.97;2.78;;;;;;;18.06;51.68;97149.41;4964802;28;20126;-60
2021/06/02 10:55:32;;;;;;;3.30;3.00;;;;;;;19.83;47.65;97137.31;4965135;28;20045;-59
2021/06/02 10:58:30;;;;;;;3.65;3.10;;;;;;;21.19;45.54;97136.56;4997894;28;20039;-71
2021/06/02 11:01:04;;;;;;;4.40;3.00;;;;;;;21.45;43.91;97132.72;4970144;28;20124;-60
2021/06/02 11:03:30;;;;;;;3.50;3.30;;;;;;;19.97;45.33;97114.53;4966455;28;20077;-58
2021/06/02 11:06:14;;;;;;;4.70;4.30;;;;;;;20.06;47.09;97140.13;4966799;28;20127;-71
2021/06/02 11:08:52;;;;;;;3.25;2.95;;;;;;;19.48;46.75;97142.31;4997705;28;20035;-69
2021/06/02 11:11:24;;;;;;;5.30;4.18;;;;;;;18.70;48.11;97155.88;4966548;28;20405;-58
2021/06/02 11:16:44;;;;;;;18.50;9.48;;;;;;;17.94;51.98;97108.66;4965782;28;20082;-57
2021/06/02 11:19:20;;;;;;;7.13;4.38;;;;;;;18.62;51.35;97154.38;4965616;28;20110;-76
2021/06/02 11:21:55;;;;;;;8.43;6.40;;;;;;;18.57;50.26;97151.25;4966013;28;20035;-75
2021/06/02 11:24:33;;;;;;;3.15;2.95;;;;;;;17.46;51.61;97104.34;4970388;28;20035;-67
2021/06/02 11:27:14;;;;;;;3.67;3.40;;;;;;;17.71;53.94;97149.75;4965856;28;20038;-68
2021/06/02 11:29:49;;;;;;;4.60;4.13;;;;;;;17.54;54.00;97145.91;4966141;28;20203;-72
2021/06/02 11:32:23;;;;;;;5.43;2.60;;;;;;;17.52;52.93;97155.91;4963638;28;20074;-68
2021/06/02 11:34:57;;;;;;;3.63;2.88;;;;;;;17.77;53.37;97131.25;4964404;28;20043;-57
2021/06/02 11:37:25;;;;;;;6.05;2.75;;;;;;;18.72;51.29;97152.63;4966237;28;20043;-69
2021/06/02 11:39:55;;;;;;;3.10;2.85;;;;;;;18.77;50.63;97160.59;4966411;28;20031;-57
2021/06/02 11:42:35;;;;;;;4.47;3.38;;;;;;;19.16;49.86;97149.59;4996538;28;20031;-71
2021/06/02 11:45:21;;;;;;;6.68;5.07;;;;;;;19.18;49.82;97139.56;4972945;28;20043;-67
2021/06/02 11:47:56;;;;;;;3.60;3.28;;;;;;;18.81;49.40;97099.59;4974488;28;20551;-67
2021/06/02 11:50:24;;;;;;;3.08;2.88;;;;;;;19.19;49.80;97160.78;4975590;28;20493;-75
2021/06/02 11:53:01;;;;;;;4.47;3.42;;;;;;;18.37;52.30;97080.16;4969974;28;20034;-57
2021/06/02 11:55:28;;;;;;;3.10;2.90;;;;;;;18.86;52.64;97158.88;4969811;28;20165;-62
2021/06/02 11:57:54;;;;;;;4.18;3.78;;;;;;;18.49;54.39;97128.09;4971197;28;20030;-66
2021/06/02 12:00:24;;;;;;;5.68;3.20;;;;;;;18.49;53.01;97161.75;4969985;28;20035;-67
2021/06/02 12:02:54;;;;;;;3.95;3.15;;;;;;;19.03;51.68;97160.63;4968280;28;20042;-63
2021/06/02 12:05:24;;;;;;;5.93;3.17;;;;;;;18.94;51.12;97157.53;4968577;28;20505;-67
2021/06/02 12:07:53;;;;;;;3.25;2.92;;;;;;;18.23;52.34;97064.28;4970943;28;20093;-60
2021/06/02 12:10:20;;;;;;;4.35;3.17;;;;;;;19.57;51.25;97149.41;4985967;28;20807;-63